Time;durP1;ratioP1;P1;durP2;ratioP2;P2;SDS_P1;SDS_P2;PMS_P1;PMS_P2;Temp;Humidity;BMP_temperature;BMP_pressure;BME280_temperature;BME280_humidity;BME280_pressure;Samples;Min_cycle;Max_cycle;Signal;HPM_P1;HPM_P2
2022/04/28 00:00:35;;;;;;;8.70;6.45;;;;;;;5.57;100.00;99865.06;5044956;28;20045;-77
2022/04/28 00:03:01;;;;;;;9.90;6.65;;;;;;;5.23;100.00;99831.16;5044319;28;20053;-77
2022/04/28 00:05:28;;;;;;;7.22;6.13;;;;;;;5.24;100.00;99846.34;5038751;28;20049;-77
2022/04/28 00:07:56;;;;;;;8.25;6.15;;;;;;;5.28;100.00;99855.00;5051111;28;20136;-77
2022/04/28 00:10:22;;;;;;;9.27;6.25;;;;;;;5.26;100.00;99863.22;5048666;28;20067;-77
2022/04/28 00:12:52;;;;;;;8.93;6.03;;;;;;;5.19;100.00;99853.13;5049354;28;20095;-77
2022/04/28 00:15:20;;;;;;;8.55;5.72;;;;;;;5.21;100.00;99859.22;5049225;28;20049;-77
2022/04/28 00:17:46;;;;;;;9.30;6.28;;;;;;;5.08;100.00;99854.06;5042863;28;20041;-77
2022/04/28 00:20:14;;;;;;;10.52;5.28;;;;;;;5.04;100.00;99828.34;5043536;28;20052;-77
2022/04/28 00:22:41;;;;;;;10.13;5.90;;;;;;;5.00;100.00;99835.88;5044416;28;20404;-77
2022/04/28 00:25:08;;;;;;;9.52;5.70;;;;;;;5.09;100.00;99824.28;5035369;28;20405;-77
2022/04/28 00:27:35;;;;;;;13.57;6.82;;;;;;;5.09;100.00;99828.81;5045050;28;20049;-77
2022/04/28 00:30:02;;;;;;;8.52;5.60;;;;;;;4.96;100.00;99840.63;5048659;28;20037;-77
2022/04/28 00:32:30;;;;;;;11.98;6.85;;;;;;;4.95;100.00;99827.31;5047843;28;20041;-77
2022/04/28 00:34:56;;;;;;;8.75;5.32;;;;;;;5.19;100.00;99863.91;5038505;28;20136;-77
2022/04/28 00:37:23;;;;;;;9.20;5.65;;;;;;;4.99;100.00;99834.13;5045037;28;20124;-77
2022/04/28 00:39:51;;;;;;;9.20;6.13;;;;;;;4.92;100.00;99849.13;5041878;28;20046;-77
2022/04/28 00:42:19;;;;;;;7.57;6.00;;;;;;;5.02;100.00;99868.91;5050977;28;20131;-77
2022/04/28 00:44:46;;;;;;;13.65;6.20;;;;;;;4.94;100.00;99849.88;5049514;28;20080;-77
2022/04/28 00:47:13;;;;;;;11.07;6.38;;;;;;;4.99;100.00;99869.19;5039210;28;20061;-77
2022/04/28 00:52:29;;;;;;;12.32;6.28;;;;;;;4.78;100.00;99826.06;5050875;28;20056;-77
2022/04/28 00:54:56;;;;;;;9.73;6.38;;;;;;;4.73;100.00;99858.78;5043223;28;20041;-77
2022/04/28 00:57:23;;;;;;;7.68;5.63;;;;;;;4.65;100.00;99837.03;5047094;28;20071;-77
2022/04/28 00:59:51;;;;;;;9.90;5.50;;;;;;;4.74;100.00;99859.63;5042670;28;20401;-78
2022/04/28 01:02:18;;;;;;;7.50;5.50;;;;;;;4.61;100.00;99844.53;5047648;28;20053;-77
2022/04/28 01:04:47;;;;;;;8.57;5.97;;;;;;;4.56;100.00;99849.44;5047618;28;20044;-77
2022/04/28 01:07:14;;;;;;;9.57;5.65;;;;;;;4.63;100.00;99876.72;5047646;28;20433;-77
2022/04/28 01:09:41;;;;;;;13.23;5.88;;;;;;;4.50;100.00;99855.34;5046014;28;20057;-77
2022/04/28 01:12:12;;;;;;;8.98;6.30;;;;;;;4.33;100.00;99837.91;5042546;28;20144;-76
2022/04/28 01:14:38;;;;;;;10.02;6.03;;;;;;;4.60;100.00;99877.81;5044864;28;20048;-76
2022/04/28 01:17:05;;;;;;;7.65;5.60;;;;;;;4.28;100.00;99842.00;5049881;28;20485;-77
2022/04/28 01:19:31;;;;;;;11.65;6.72;;;;;;;4.47;100.00;99885.25;5048806;28;20048;-77
2022/04/28 01:21:59;;;;;;;9.15;5.95;;;;;;;4.19;100.00;99852.53;5046780;28;20049;-77
2022/04/28 01:24:26;;;;;;;7.45;5.35;;;;;;;4.14;100.00;99854.75;5044318;28;20416;-77
2022/04/28 01:26:55;;;;;;;11.02;5.80;;;;;;;4.24;100.00;99877.19;5041811;28;20425;-77
2022/04/28 01:29:22;;;;;;;8.95;5.70;;;;;;;4.09;100.00;99867.72;5044634;28;20098;-77
2022/04/28 01:31:49;;;;;;;8.95;5.90;;;;;;;4.06;100.00;99870.66;5043871;28;20664;-77
2022/04/28 01:34:16;;;;;;;9.23;6.20;;;;;;;3.94;100.00;99850.13;5046009;28;20052;-77
2022/04/28 01:36:42;;;;;;;13.35;6.45;;;;;;;4.13;100.00;99885.31;5047380;28;20056;-77
2022/04/28 01:39:11;;;;;;;9.60;5.78;;;;;;;3.82;100.00;99843.94;5042268;28;20117;-77
2022/04/28 01:41:38;;;;;;;11.52;7.10;;;;;;;3.81;100.00;99850.28;5045514;28;20480;-77
2022/04/28 01:44:04;;;;;;;12.43;6.88;;;;;;;3.92;100.00;99871.78;5039926;28;20397;-77
2022/04/28 01:46:31;;;;;;;9.20;5.72;;;;;;;3.68;100.00;99837.81;5043006;28;20057;-77
2022/04/28 01:48:57;;;;;;;9.55;5.78;;;;;;;3.69;100.00;99842.25;5037329;28;20049;-77
2022/04/28 01:56:53;;;;;;;9.20;6.40;;;;;;;3.94;100.00;99887.81;5047761;28;20060;-77
2022/04/28 01:59:20;;;;;;;10.93;6.53;;;;;;;3.95;100.00;99882.31;5046999;28;20292;-77
2022/04/28 02:01:46;;;;;;;10.70;7.20;;;;;;;3.75;100.00;99854.34;5041259;28;20046;-76
2022/04/28 02:04:13;;;;;;;9.23;6.85;;;;;;;3.67;100.00;99854.97;5039997;28;20143;-77
2022/04/28 02:06:39;;;;;;;9.20;7.30;;;;;;;3.94;100.00;99877.03;5041211;28;20053;-77
2022/04/28 02:09:06;;;;;;;12.32;6.65;;;;;;;3.88;100.00;99881.09;5045838;28;20060;-77
2022/04/28 02:11:32;;;;;;;10.93;7.07;;;;;;;3.71;100.00;99872.53;5043451;28;20076;-77
2022/04/28 02:14:00;;;;;;;12.52;6.60;;;;;;;3.66;100.00;99880.13;5042385;28;20512;-76
2022/04/28 02:16:27;;;;;;;12.45;7.43;;;;;;;3.51;100.00;99851.78;5043637;28;20041;-77
2022/04/28 02:18:53;;;;;;;10.35;7.30;;;;;;;3.68;100.00;99853.97;5047137;28;20053;-76
2022/04/28 02:21:20;;;;;;;10.38;6.53;;;;;;;3.84;100.00;99882.31;5042199;28;20055;-77
2022/04/28 02:23:46;;;;;;;8.27;6.65;;;;;;;3.64;100.00;99847.13;5045675;28;20433;-77
2022/04/28 02:26:13;;;;;;;9.77;6.65;;;;;;;3.83;100.00;99881.47;5045830;28;21317;-77
2022/04/28 02:28:39;;;;;;;9.15;6.50;;;;;;;3.67;100.00;99872.91;5046551;28;20053;-77
2022/04/28 02:31:07;;;;;;;9.73;6.32;;;;;;;3.42;100.00;99847.13;5046492;28;20119;-77
2022/04/28 02:33:34;;;;;;;12.55;6.40;;;;;;;3.51;100.00;99866.09;5036793;28;20417;-76
2022/04/28 02:36:00;;;;;;;8.73;6.53;;;;;;;3.54;100.00;99862.31;5046935;28;20042;-76
2022/04/28 02:38:27;;;;;;;9.48;5.82;;;;;;;3.42;100.00;99855.19;5038475;28;20045;-77
2022/04/28 02:40:53;;;;;;;7.95;5.63;;;;;;;3.38;100.00;99861.81;5039012;28;20052;-77
2022/04/28 02:43:20;;;;;;;9.68;7.15;;;;;;;3.39;100.00;99883.19;5049367;28;20408;-76
2022/04/28 02:45:46;;;;;;;7.85;6.03;;;;;;;3.20;100.00;99867.66;5051820;28;20045;-77
2022/04/28 02:48:14;;;;;;;7.10;5.53;;;;;;;3.28;100.00;99888.53;5051385;28;20045;-77
2022/04/28 02:50:41;;;;;;;8.57;5.78;;;;;;;3.27;100.00;99897.59;5050268;28;20073;-76
2022/04/28 02:53:08;;;;;;;8.52;6.07;;;;;;;3.23;100.00;99888.06;5044104;28;20060;-77
2022/04/28 02:55:34;;;;;;;9.00;6.05;;;;;;;3.31;100.00;99899.94;5048206;28;20435;-77
2022/04/28 02:58:01;;;;;;;10.48;5.95;;;;;;;3.30;100.00;99895.53;5051535;28;20047;-77
2022/04/28 03:00:28;;;;;;;9.25;6.50;;;;;;;3.13;100.00;99871.78;5048750;28;20484;-77
2022/04/28 03:02:55;;;;;;;7.68;6.20;;;;;;;3.23;100.00;99902.34;5048429;28;20048;-76
2022/04/28 03:05:23;;;;;;;8.05;5.93;;;;;;;2.93;100.00;99858.06;5047226;28;20567;-77
2022/04/28 03:10:49;;;;;;;9.30;6.22;;;;;;;2.87;100.00;99865.75;5048453;28;20079;-76
2022/04/28 03:13:17;;;;;;;8.50;6.00;;;;;;;2.87;100.00;99869.28;5050247;28;20048;-76
2022/04/28 03:15:43;;;;;;;11.07;6.97;;;;;;;3.00;100.00;99888.03;5047964;28;20075;-77
2022/04/28 03:18:10;;;;;;;9.95;6.65;;;;;;;3.01;100.00;99903.13;5048257;28;20045;-76
2022/04/28 03:20:38;;;;;;;10.98;6.95;;;;;;;3.09;100.00;99903.41;5048573;28;20056;-77
2022/04/28 03:23:05;;;;;;;8.23;6.45;;;;;;;2.98;100.00;99912.31;5046885;28;20405;-77
2022/04/28 03:25:32;;;;;;;10.82;7.10;;;;;;;2.67;100.00;99892.31;5046945;28;20507;-76
2022/04/28 03:27:59;;;;;;;9.73;6.30;;;;;;;2.76;100.00;99880.03;5044702;28;20106;-77
2022/04/28 03:30:25;;;;;;;9.55;6.18;;;;;;;2.80;100.00;99906.53;5048846;28;20503;-76
2022/04/28 03:32:52;;;;;;;10.70;6.95;;;;;;;2.78;100.00;99894.19;5049005;28;20215;-77
2022/04/28 03:35:18;;;;;;;10.93;6.65;;;;;;;2.75;100.00;99894.41;5048353;28;20064;-77
2022/04/28 03:37:47;;;;;;;10.73;7.07;;;;;;;2.86;100.00;99918.63;5045825;28;20045;-77
2022/04/28 03:40:14;;;;;;;11.35;6.78;;;;;;;2.59;100.00;99890.22;5045671;28;20049;-77
2022/04/28 03:42:40;;;;;;;12.43;6.88;;;;;;;2.60;100.00;99905.31;5045851;28;20064;-77
2022/04/28 03:45:08;;;;;;;11.23;6.18;;;;;;;2.56;100.00;99919.97;5048459;28;20057;-77
2022/04/28 03:47:36;;;;;;;11.25;7.82;;;;;;;2.31;100.00;99896.78;5048403;28;20049;-77
2022/04/28 03:50:03;;;;;;;11.05;7.43;;;;;;;2.34;100.00;99896.56;5049410;28;20570;-77
2022/04/28 03:52:30;;;;;;;11.68;7.75;;;;;;;2.52;100.00;99921.16;5046345;28;20090;-77
2022/04/28 03:54:58;;;;;;;10.95;7.28;;;;;;;2.51;100.00;99922.13;5048549;28;20060;-77
2022/04/28 03:57:24;;;;;;;9.70;6.78;;;;;;;2.37;100.00;99904.38;5048459;28;20435;-76
2022/04/28 03:59:51;;;;;;;10.68;7.10;;;;;;;2.37;100.00;99907.06;5049272;28;20064;-76
2022/04/28 04:02:17;;;;;;;12.40;7.60;;;;;;;2.46;100.00;99900.16;5046610;28;20048;-77
2022/04/28 04:04:44;;;;;;;15.15;9.43;;;;;;;2.55;100.00;99938.88;5046659;28;20060;-76
2022/04/28 04:07:11;;;;;;;14.88;8.48;;;;;;;2.31;100.00;99899.47;5041972;28;20417;-76
2022/04/28 04:09:37;;;;;;;14.80;8.13;;;;;;;2.56;100.00;99937.88;5045092;28;20098;-76
2022/04/28 04:12:06;;;;;;;12.30;8.50;;;;;;;2.38;100.00;99911.47;5046553;28;20048;-76
2022/04/28 04:14:33;;;;;;;11.52;7.88;;;;;;;2.39;100.00;99897.06;5048415;28;20063;-76
2022/04/28 04:16:59;;;;;;;15.00;8.73;;;;;;;2.50;100.00;99914.19;5042428;28;20057;-77
2022/04/28 04:19:26;;;;;;;13.18;7.20;;;;;;;2.41;100.00;99905.00;5045501;28;20052;-76
2022/04/28 04:21:52;;;;;;;11.07;7.97;;;;;;;2.40;100.00;99900.63;5050620;28;20045;-77
2022/04/28 04:24:19;;;;;;;10.60;7.55;;;;;;;2.44;100.00;99900.28;5048410;28;20059;-76
2022/04/28 04:26:45;;;;;;;11.20;7.32;;;;;;;2.47;100.00;99913.47;5044318;28;20044;-76
2022/04/28 04:29:13;;;;;;;10.27;6.97;;;;;;;2.46;100.00;99910.91;5044943;28;20060;-77
2022/04/28 04:34:24;;;;;;;11.13;6.95;;;;;;;2.48;100.00;99917.88;5047943;28;20126;-77
2022/04/28 04:36:51;;;;;;;9.35;6.85;;;;;;;2.76;100.00;99949.84;5046127;28;20045;-76
2022/04/28 04:39:17;;;;;;;11.10;7.55;;;;;;;2.59;100.00;99921.56;5048568;28;20099;-76
2022/04/28 04:41:44;;;;;;;10.48;6.57;;;;;;;2.70;100.00;99932.34;5046787;28;20049;-76
2022/04/28 04:44:13;;;;;;;11.73;6.78;;;;;;;2.75;100.00;99945.44;5047325;28;20041;-77
2022/04/28 04:46:41;;;;;;;12.38;7.32;;;;;;;2.86;100.00;99963.41;5047350;28;20128;-77
2022/04/28 04:49:08;;;;;;;13.32;7.78;;;;;;;2.90;100.00;99967.59;5045930;28;20094;-76
2022/04/28 04:51:34;;;;;;;9.32;6.50;;;;;;;2.92;100.00;99960.25;5045184;28;20071;-76
2022/04/28 04:54:00;;;;;;;10.95;7.15;;;;;;;2.95;100.00;99976.13;5046376;28;20049;-76
2022/04/28 04:56:27;;;;;;;15.55;6.55;;;;;;;2.85;100.00;99943.75;5050136;28;20041;-76
2022/04/28 04:58:54;;;;;;;10.68;6.72;;;;;;;2.97;100.00;99966.16;5045377;28;20052;-76
2022/04/28 05:01:20;;;;;;;10.40;7.35;;;;;;;2.93;100.00;99962.81;5041626;28;20041;-76
2022/04/28 05:03:59;;;;;;;10.40;6.65;;;;;;;3.16;100.00;99987.09;5044763;28;20056;-76
2022/04/28 05:06:26;;;;;;;15.10;8.40;;;;;;;2.99;100.00;99950.75;5043261;28;20593;-76
2022/04/28 05:08:52;;;;;;;14.13;8.38;;;;;;;3.15;100.00;99975.50;5046459;28;20491;-76
2022/04/28 05:11:19;;;;;;;10.43;7.55;;;;;;;3.15;100.00;99966.59;5041700;28;20044;-76
2022/04/28 05:13:46;;;;;;;17.48;9.73;;;;;;;3.19;100.00;99963.53;5044303;28;20404;-76
2022/04/28 05:16:12;;;;;;;15.90;9.70;;;;;;;3.35;100.00;99990.06;5044839;28;20051;-76
2022/04/28 05:18:39;;;;;;;14.65;8.82;;;;;;;3.38;100.00;99996.22;5043701;28;20060;-76
2022/04/28 05:21:07;;;;;;;15.63;8.38;;;;;;;3.41;100.00;99994.13;5050132;28;20461;-76
2022/04/28 05:23:33;;;;;;;18.38;10.65;;;;;;;3.74;100.00;99972.78;5051654;28;20057;-77
2022/04/28 05:26:21;;;;;;;15.52;10.10;;;;;;;4.28;100.00;100007.03;5052356;28;20392;-76
2022/04/28 05:28:48;;;;;;;15.55;9.23;;;;;;;4.45;100.00;99997.56;5044471;28;20053;-76
2022/04/28 05:31:14;;;;;;;14.07;9.40;;;;;;;4.87;100.00;100000.41;5044733;28;20484;-76
2022/04/28 05:33:42;;;;;;;12.60;9.25;;;;;;;5.19;100.00;99993.28;5046275;28;20053;-75
2022/04/28 05:36:11;;;;;;;13.55;8.50;;;;;;;5.57;100.00;99990.03;5052084;28;20049;-75
2022/04/28 05:38:38;;;;;;;11.30;8.30;;;;;;;5.93;100.00;100003.13;5044364;28;20053;-75
2022/04/28 05:41:05;;;;;;;14.02;8.73;;;;;;;6.12;100.00;99987.06;5030108;28;20049;-76
2022/04/28 05:46:18;;;;;;;11.25;7.50;;;;;;;6.87;100.00;100011.84;5045932;28;20098;-75
2022/04/28 05:48:45;;;;;;;12.48;6.60;;;;;;;7.26;100.00;100021.84;5049532;28;20049;-75
2022/04/28 05:51:13;;;;;;;11.18;7.65;;;;;;;7.36;100.00;99984.81;5049233;28;20049;-75
2022/04/28 05:53:40;;;;;;;11.32;8.65;;;;;;;7.51;100.00;99982.53;5048028;28;20045;-76
2022/04/28 05:56:07;;;;;;;13.25;8.95;;;;;;;7.69;100.00;99974.47;5038063;28;20080;-75
2022/04/28 05:58:34;;;;;;;12.82;8.95;;;;;;;7.97;100.00;99982.69;5048044;28;20053;-75
2022/04/28 06:01:00;;;;;;;18.95;9.77;;;;;;;8.20;100.00;99996.69;5044983;28;20045;-76
2022/04/28 06:03:28;;;;;;;14.20;8.38;;;;;;;8.58;100.00;99996.66;5045262;28;20060;-75
2022/04/28 06:05:54;;;;;;;16.60;7.85;;;;;;;8.98;97.27;100000.84;5043613;28;20517;-75
2022/04/28 06:08:22;;;;;;;15.25;9.10;;;;;;;9.36;94.92;100012.38;5048036;28;20056;-75
2022/04/28 06:10:49;;;;;;;13.45;8.85;;;;;;;9.56;95.08;100007.66;5043265;28;20070;-75
2022/04/28 06:13:15;;;;;;;12.75;9.32;;;;;;;9.71;93.86;100024.19;5049458;28;20056;-76
2022/04/28 06:15:42;;;;;;;12.48;8.30;;;;;;;9.95;92.43;100031.69;5034847;28;20454;-76
2022/04/28 06:18:08;;;;;;;12.77;8.75;;;;;;;10.09;90.71;99995.75;5047143;28;20053;-76
2022/04/28 06:20:35;;;;;;;12.55;8.50;;;;;;;10.21;87.70;99988.19;5040098;28;20045;-76
2022/04/28 06:23:01;;;;;;;13.43;8.40;;;;;;;10.52;85.54;100009.41;5035073;28;20041;-76
2022/04/28 06:25:30;;;;;;;12.27;8.30;;;;;;;10.51;85.38;100013.16;5043446;28;20489;-76
2022/04/28 06:27:58;;;;;;;14.07;9.55;;;;;;;10.20;87.12;99999.22;5047076;28;20119;-76
2022/04/28 06:30:25;;;;;;;14.80;8.55;;;;;;;10.71;85.65;100010.16;5049702;28;20128;-75
2022/04/28 06:32:52;;;;;;;16.52;7.60;;;;;;;10.56;85.28;100021.66;5038650;28;20045;-75
2022/04/28 06:35:19;;;;;;;11.50;8.43;;;;;;;10.86;84.92;100048.47;5055016;28;20045;-75
2022/04/28 06:37:45;;;;;;;11.18;8.38;;;;;;;10.97;84.04;100043.56;5053637;28;20473;-75
2022/04/28 06:40:12;;;;;;;13.55;8.18;;;;;;;11.20;82.67;100015.72;5052782;28;20052;-76
2022/04/28 06:42:43;;;;;;;9.30;7.18;;;;;;;11.42;81.19;100035.97;5049007;28;20045;-76
2022/04/28 06:45:10;;;;;;;14.68;8.30;;;;;;;11.33;79.24;100032.38;5052527;28;20088;-76
2022/04/28 06:47:37;;;;;;;16.45;7.57;;;;;;;11.66;78.40;100021.50;5050361;28;20049;-76
2022/04/28 06:50:04;;;;;;;12.43;7.55;;;;;;;11.46;79.45;100031.06;5052431;28;20052;-75
2022/04/28 06:52:31;;;;;;;16.77;8.88;;;;;;;11.76;79.96;100045.03;5047672;28;20042;-76
2022/04/28 06:54:58;;;;;;;17.58;7.68;;;;;;;12.07;78.19;100041.59;5051693;28;20041;-76
2022/04/28 06:57:25;;;;;;;15.13;8.32;;;;;;;11.87;78.60;100014.69;5049931;28;20136;-76
2022/04/28 06:59:52;;;;;;;12.88;7.70;;;;;;;11.98;78.12;100027.13;5052147;28;20195;-75
2022/04/28 07:02:20;;;;;;;10.85;7.32;;;;;;;12.07;77.81;100022.50;5051910;28;20088;-76
2022/04/28 07:04:46;;;;;;;12.90;7.43;;;;;;;12.61;76.06;100024.56;5051947;28;20539;-76
2022/04/28 07:07:13;;;;;;;17.92;8.15;;;;;;;12.92;75.92;100038.22;5052343;28;20079;-76
2022/04/28 07:09:40;;;;;;;17.83;7.85;;;;;;;12.83;75.46;100053.78;5049281;28;20512;-76
2022/04/28 07:12:07;;;;;;;12.40;8.73;;;;;;;13.07;76.11;100021.94;5051222;28;20067;-76
2022/04/28 07:14:34;;;;;;;9.45;7.45;;;;;;;12.65;76.56;100024.03;5052183;28;20064;-76
2022/04/28 07:17:02;;;;;;;15.30;8.38;;;;;;;12.51;78.53;100044.72;5044711;28;20045;-75
2022/04/28 07:19:29;;;;;;;12.32;7.75;;;;;;;13.19;75.88;100047.78;5052327;28;20134;-76
2022/04/28 07:21:55;;;;;;;10.48;8.35;;;;;;;13.35;75.23;100052.31;5051895;28;20072;-76
2022/04/28 07:24:22;;;;;;;13.27;7.88;;;;;;;12.81;77.33;100023.09;5044590;28;20416;-75
2022/04/28 07:26:48;;;;;;;12.50;8.27;;;;;;;12.92;78.04;100058.16;5048919;28;20372;-76
2022/04/28 07:29:15;;;;;;;16.38;8.68;;;;;;;13.05;78.37;100045.81;5051952;28;20060;-76
2022/04/28 07:31:43;;;;;;;11.68;8.02;;;;;;;13.02;78.39;100063.41;5051555;28;20488;-76
2022/04/28 07:34:11;;;;;;;12.35;8.32;;;;;;;12.90;77.83;100032.94;5051294;28;20485;-76
2022/04/28 07:36:38;;;;;;;13.38;7.72;;;;;;;13.12;78.14;100032.31;5051081;28;20063;-76
2022/04/28 07:39:04;;;;;;;13.15;8.15;;;;;;;12.97;78.21;100027.59;5051565;28;20268;-76
2022/04/28 07:41:31;;;;;;;12.70;8.65;;;;;;;13.21;77.01;100036.69;5044894;28;20068;-76
2022/04/28 07:43:57;;;;;;;12.13;6.97;;;;;;;13.35;74.54;100037.81;5046839;28;20052;-78
2022/04/28 07:46:24;;;;;;;10.80;7.65;;;;;;;13.32;76.14;100028.06;5052074;28;20049;-79
2022/04/28 07:48:50;;;;;;;9.95;7.22;;;;;;;13.31;78.68;100050.97;5050870;28;20083;-76
2022/04/28 07:51:19;;;;;;;13.23;7.95;;;;;;;13.41;76.60;100029.75;5051305;28;20409;-76
2022/04/28 07:53:45;;;;;;;11.48;7.75;;;;;;;13.63;76.65;100052.59;5047150;28;20377;-76
2022/04/28 07:56:14;;;;;;;8.77;6.93;;;;;;;13.83;76.32;100056.72;5040598;28;20060;-76
2022/04/28 07:58:41;;;;;;;9.68;6.95;;;;;;;14.01;76.21;100045.47;5047397;28;20134;-76
2022/04/28 08:01:07;;;;;;;10.75;7.22;;;;;;;13.85;77.64;100051.91;5050879;28;20088;-76
2022/04/28 08:03:34;;;;;;;11.52;6.78;;;;;;;14.15;74.19;100052.81;5050397;28;20041;-76
2022/04/28 08:06:01;;;;;;;9.95;6.57;;;;;;;14.22;73.27;100047.47;5049023;28;20041;-76
2022/04/28 08:08:45;;;;;;;10.57;6.13;;;;;;;14.53;69.54;100055.50;5051318;28;20041;-76
2022/04/28 08:11:12;;;;;;;8.82;5.72;;;;;;;14.39;67.83;100045.41;5051369;28;20053;-79
2022/04/28 08:13:40;;;;;;;7.03;5.57;;;;;;;14.62;68.72;100048.09;5042317;28;20049;-76
2022/04/28 08:16:08;;;;;;;5.55;3.63;;;;;;;14.69;60.18;100038.06;5050944;28;20077;-76
2022/04/28 08:18:36;;;;;;;3.63;2.70;;;;;;;14.86;54.95;100055.97;5051242;28;20128;-78
2022/04/28 08:21:03;;;;;;;4.05;2.63;;;;;;;15.02;51.01;100048.56;5050277;28;20053;-78
2022/04/28 08:23:29;;;;;;;3.60;2.88;;;;;;;14.92;50.84;100032.47;5050262;28;20037;-78
2022/04/28 08:25:59;;;;;;;5.90;3.08;;;;;;;14.94;49.60;100046.81;5050562;28;20044;-78
2022/04/28 08:28:26;;;;;;;4.63;2.47;;;;;;;15.09;49.25;100065.94;5051272;28;20045;-78
2022/04/28 08:30:52;;;;;;;2.95;2.53;;;;;;;15.09;49.06;100059.63;5049359;28;20488;-79
2022/04/28 08:33:19;;;;;;;3.08;2.53;;;;;;;15.13;50.95;100070.00;5050053;28;20044;-79
2022/04/28 08:35:45;;;;;;;3.80;2.33;;;;;;;15.28;49.69;100063.63;5050044;28;20068;-79
2022/04/28 08:38:12;;;;;;;3.83;2.75;;;;;;;15.28;46.65;100050.78;5050561;28;20057;-79
2022/04/28 08:40:39;;;;;;;4.82;2.50;;;;;;;15.31;47.25;100052.25;5050499;28;20051;-76
2022/04/28 08:43:18;;;;;;;5.03;2.42;;;;;;;15.62;47.33;100062.91;5048361;28;20096;-79
2022/04/28 08:48:44;;;;;;;5.22;2.28;;;;;;;15.81;48.33;100069.69;5045989;28;20052;-77
2022/04/28 08:51:12;;;;;;;2.75;2.22;;;;;;;15.64;46.23;100044.41;5050329;28;20048;-76
2022/04/28 08:53:39;;;;;;;3.25;2.63;;;;;;;15.76;47.45;100058.41;5049752;28;20045;-77
2022/04/28 08:56:06;;;;;;;4.03;2.45;;;;;;;15.45;43.93;100039.59;5050295;28;20051;-77
2022/04/28 08:58:34;;;;;;;3.60;2.55;;;;;;;15.53;44.74;100055.88;5050493;28;20384;-76
2022/04/28 09:01:01;;;;;;;21.40;2.78;;;;;;;15.43;45.13;100044.38;5050515;28;20064;-77
2022/04/28 09:03:27;;;;;;;4.40;2.70;;;;;;;15.63;44.55;100059.16;5041040;28;20469;-77
2022/04/28 09:05:55;;;;;;;4.18;2.80;;;;;;;15.69;44.34;100057.53;5048438;28;20056;-77
2022/04/28 09:08:22;;;;;;;3.55;2.40;;;;;;;15.83;45.28;100072.22;5030316;28;20056;-77
2022/04/28 09:10:49;;;;;;;4.75;2.72;;;;;;;15.81;48.08;100061.44;5030029;28;20053;-77
2022/04/28 09:16:01;;;;;;;2.88;1.98;;;;;;;16.04;44.92;100077.66;5027950;28;20072;-77
2022/04/28 09:18:28;;;;;;;5.68;2.60;;;;;;;15.83;41.77;100061.25;5029238;28;20068;-77
2022/04/28 09:20:55;;;;;;;3.08;2.10;;;;;;;15.89;41.25;100065.94;5027407;28;20077;-77
2022/04/28 09:23:21;;;;;;;4.60;2.13;;;;;;;16.06;41.98;100071.97;5026449;28;20132;-77
2022/04/28 09:25:48;;;;;;;3.40;2.10;;;;;;;16.02;43.63;100057.84;5029621;28;20053;-77
2022/04/28 09:28:16;;;;;;;3.10;2.38;;;;;;;16.21;42.79;100058.16;5030082;28;20049;-77
2022/04/28 09:30:43;;;;;;;2.95;2.45;;;;;;;16.24;42.54;100068.75;5029831;28;20048;-77
2022/04/28 09:33:14;;;;;;;3.83;1.98;;;;;;;16.33;42.13;100062.06;5027869;28;20054;-77
2022/04/28 09:35:51;;;;;;;3.95;2.35;;;;;;;16.49;42.06;100055.41;5022068;28;20092;-77
2022/04/28 09:38:18;;;;;;;4.88;2.33;;;;;;;16.58;41.14;100064.34;5025857;28;20045;-77
2022/04/28 09:43:30;;;;;;;5.70;2.17;;;;;;;16.39;39.42;100047.53;5027430;28;20138;-77
2022/04/28 09:45:57;;;;;;;4.03;2.67;;;;;;;16.59;40.63;100058.63;5029805;28;20492;-77
2022/04/28 09:48:29;;;;;;;3.13;2.20;;;;;;;16.48;40.84;100047.38;5027790;28;20401;-77
2022/04/28 09:51:00;;;;;;;3.47;2.25;;;;;;;16.40;38.38;100034.66;5033560;28;20037;-78
2022/04/28 09:53:30;;;;;;;2.20;1.75;;;;;;;16.36;37.09;100027.88;5033005;28;20482;-77
2022/04/28 09:56:00;;;;;;;4.13;2.00;;;;;;;16.48;38.18;100036.41;5032193;28;20041;-77
2022/04/28 09:58:27;;;;;;;;;;;;;;;16.72;36.40;100052.34;5031577;28;20060;-77
2022/04/28 10:00:55;;;;;;;4.15;2.20;;;;;;;16.83;39.65;100042.72;5033666;28;20327;-77
2022/04/28 10:03:23;;;;;;;7.75;1.67;;;;;;;17.00;41.82;100037.75;5032399;28;20053;-77
2022/04/28 10:05:51;;;;;;;3.50;2.38;;;;;;;16.96;38.81;100022.72;5033304;28;20052;-77
2022/04/28 10:08:18;;;;;;;6.45;2.63;;;;;;;17.04;39.47;100022.53;5033570;28;20049;-77
2022/04/28 10:10:46;;;;;;;6.47;2.22;;;;;;;17.38;38.36;100048.19;5033235;28;20053;-77
2022/04/28 10:13:14;;;;;;;4.28;2.38;;;;;;;17.52;40.89;100029.81;5032514;28;20057;-77
2022/04/28 10:15:40;;;;;;;3.45;2.10;;;;;;;17.69;37.65;100031.13;5031809;28;20114;-77
2022/04/28 10:18:10;;;;;;;3.15;2.25;;;;;;;17.51;38.96;100018.00;5032652;28;20057;-78
2022/04/28 10:20:40;;;;;;;2.30;1.80;;;;;;;17.90;39.29;100040.25;5033352;28;20058;-77
2022/04/28 10:23:10;;;;;;;4.45;2.15;;;;;;;18.18;39.27;100044.69;5032418;28;20049;-77
2022/04/28 10:34:13;;;;;;;3.35;2.25;;;;;;;16.45;39.01;100012.94;5031521;28;20056;-78
2022/04/28 10:36:58;;;;;;;5.18;1.98;;;;;;;16.91;38.46;100014.25;5033007;28;20049;-77
2022/04/28 10:39:39;;;;;;;3.47;1.90;;;;;;;17.39;40.47;100027.03;5033448;28;20076;-77
2022/04/28 10:42:14;;;;;;;3.55;1.88;;;;;;;17.80;42.44;100020.56;5023783;28;20048;-78
2022/04/28 10:44:49;;;;;;;4.18;2.25;;;;;;;17.97;39.00;100002.56;5032673;28;20119;-78
2022/04/28 10:47:22;;;;;;;7.50;2.15;;;;;;;18.13;39.87;100036.22;5030686;28;20084;-78
2022/04/28 10:49:53;;;;;;;3.45;2.20;;;;;;;17.97;39.86;100008.06;5032172;28;20057;-78
2022/04/28 10:52:23;;;;;;;2.97;2.05;;;;;;;18.24;39.68;100023.72;5032153;28;20049;-78
2022/04/28 10:54:54;;;;;;;2.78;2.03;;;;;;;18.42;39.95;100031.31;5032419;28;20497;-78
2022/04/28 10:57:30;;;;;;;3.78;2.03;;;;;;;18.60;37.75;100030.63;5032937;28;20095;-78
2022/04/28 10:59:57;;;;;;;4.90;1.98;;;;;;;18.53;34.87;100017.72;5024222;28;20473;-77
2022/04/28 11:02:41;;;;;;;5.95;1.98;;;;;;;18.61;39.76;100018.53;5031388;28;20073;-77
2022/04/28 11:05:40;;;;;;;2.38;2.00;;;;;;;18.42;35.58;100032.16;5023905;28;20049;-77
2022/04/28 11:08:33;;;;;;;2.90;2.20;;;;;;;18.18;35.97;100022.66;5032551;28;20053;-77
2022/04/28 11:11:07;;;;;;;2.40;1.95;;;;;;;18.51;37.96;100005.22;5032469;28;20054;-77
2022/04/28 11:13:35;;;;;;;2.60;1.75;;;;;;;18.83;35.22;100002.56;5027177;28;20119;-78
2022/04/28 11:16:02;;;;;;;4.15;1.92;;;;;;;18.78;35.01;100017.00;5023689;28;20057;-78
2022/04/28 11:18:29;;;;;;;2.08;1.70;;;;;;;18.82;34.17;100006.38;5013153;28;20057;-77
2022/04/28 11:20:59;;;;;;;2.00;1.75;;;;;;;18.39;35.33;100035.34;5030231;28;20072;-78
2022/04/28 11:23:25;;;;;;;9.82;2.55;;;;;;;18.36;34.19;100019.25;5031689;28;20049;-77
2022/04/28 11:25:52;;;;;;;2.15;1.60;;;;;;;18.51;37.28;100019.00;5031747;28;20421;-77
2022/04/28 11:28:21;;;;;;;4.40;2.20;;;;;;;18.77;35.66;100014.47;5031569;28;20048;-78
2022/04/28 11:30:49;;;;;;;2.35;1.90;;;;;;;18.89;35.17;100030.13;5032059;28;20045;-78
2022/04/28 11:33:16;;;;;;;3.85;2.63;;;;;;;18.75;33.93;100026.53;5023658;28;20055;-78
2022/04/28 11:35:43;;;;;;;3.95;2.10;;;;;;;18.97;36.51;100028.16;5031801;28;20045;-78
2022/04/28 11:38:11;;;;;;;3.97;1.98;;;;;;;19.08;35.72;100003.53;5024546;28;20054;-78
2022/04/28 11:40:39;;;;;;;2.10;1.88;;;;;;;18.99;33.76;100021.38;5031635;28;20053;-78
2022/04/28 11:43:06;;;;;;;2.58;1.83;;;;;;;19.38;36.15;100019.47;5028998;28;20463;-78
2022/04/28 11:45:36;;;;;;;3.83;1.95;;;;;;;19.58;33.64;100024.00;5031730;28;20132;-77
2022/04/28 11:48:04;;;;;;;3.38;1.90;;;;;;;19.67;35.47;100027.34;5031929;28;20374;-77
2022/04/28 11:50:34;;;;;;;3.17;1.90;;;;;;;19.70;33.95;100004.81;5031697;28;20061;-78
2022/04/28 11:53:03;;;;;;;;;;;;;;;20.00;34.14;100016.06;5029199;28;20184;-78
2022/04/28 11:55:31;;;;;;;3.47;2.00;;;;;;;20.22;35.92;100024.78;5026459;28;19975;-78
2022/04/28 11:57:58;;;;;;;3.85;1.73;;;;;;;20.09;33.85;100000.91;5030847;28;20061;-78
2022/04/28 12:00:27;;;;;;;3.00;1.88;;;;;;;19.80;33.62;100003.28;5031269;28;20053;-78
2022/04/28 12:02:56;;;;;;;2.28;1.65;;;;;;;19.77;35.30;100017.53;5030451;28;20053;-78